Time;durP1;ratioP1;P1;durP2;ratioP2;P2;SDS_P1;SDS_P2;PMS_P1;PMS_P2;Temp;Humidity;BMP_temperature;BMP_pressure;BME280_temperature;BME280_humidity;BME280_pressure;Samples;Min_cycle;Max_cycle;Signal;HPM_P1;HPM_P2
2021/06/24 00:00:48;;;;;;;3.97;2.15;;;17.60;82.70;;;;;;5006040;28;20113;-73
2021/06/24 00:03:14;;;;;;;3.55;2.38;;;17.70;82.70;;;;;;5007785;28;20057;-73
2021/06/24 00:05:41;;;;;;;5.03;2.75;;;17.60;82.70;;;;;;5001339;28;20018;-73
2021/06/24 00:08:08;;;;;;;7.30;3.80;;;17.60;82.70;;;;;;4998098;28;20041;-73
2021/06/24 00:10:36;;;;;;;7.35;3.00;;;17.60;83.10;;;;;;5005610;28;20029;-73
2021/06/24 00:13:02;;;;;;;6.20;3.38;;;17.70;83.60;;;;;;5005529;28;20481;-73
2021/06/24 00:15:28;;;;;;;4.43;3.08;;;17.70;83.00;;;;;;5005401;28;20038;-73
2021/06/24 00:17:53;;;;;;;3.88;2.75;;;17.70;83.00;;;;;;5009505;28;20532;-73
2021/06/24 00:20:19;;;;;;;6.15;3.03;;;17.70;83.10;;;;;;5007636;28;20026;-73
2021/06/24 00:22:44;;;;;;;5.88;2.80;;;17.70;83.20;;;;;;5005980;28;20034;-73
2021/06/24 00:25:11;;;;;;;4.40;2.70;;;17.60;83.50;;;;;;5006943;28;20037;-73
2021/06/24 00:27:36;;;;;;;5.03;2.20;;;17.60;83.30;;;;;;5008469;28;20034;-73
2021/06/24 00:30:03;;;;;;;3.65;3.13;;;17.60;83.50;;;;;;5004318;28;20389;-73
2021/06/24 00:32:28;;;;;;;5.85;2.67;;;17.60;83.80;;;;;;5008733;28;20461;-73
2021/06/24 00:34:59;;;;;;;9.65;2.97;;;17.60;83.90;;;;;;5008875;28;20080;-73
2021/06/24 00:37:25;;;;;;;9.10;2.65;;;17.50;84.20;;;;;;5005684;28;20033;-73
2021/06/24 00:39:50;;;;;;;5.53;2.45;;;17.50;84.00;;;;;;5004492;28;20504;-73
2021/06/24 00:42:16;;;;;;;6.97;3.15;;;17.50;84.20;;;;;;5003992;28;20499;-73
2021/06/24 00:44:42;;;;;;;6.05;3.08;;;17.40;84.40;;;;;;5007111;28;20080;-73
2021/06/24 00:47:07;;;;;;;9.23;2.72;;;17.40;84.60;;;;;;5009663;28;20178;-73
2021/06/24 00:49:33;;;;;;;6.47;3.45;;;17.50;84.50;;;;;;5007077;28;20382;-73
2021/06/24 00:51:59;;;;;;;6.22;3.00;;;17.40;84.50;;;;;;5005952;28;20120;-73
2021/06/24 00:54:24;;;;;;;4.72;3.47;;;17.40;84.90;;;;;;5007495;28;20030;-73
2021/06/24 00:56:50;;;;;;;5.18;2.72;;;17.30;84.80;;;;;;5006364;28;20444;-73
2021/06/24 00:59:16;;;;;;;5.50;2.92;;;17.30;85.30;;;;;;5005918;28;20030;-73
2021/06/24 01:01:41;;;;;;;5.13;3.90;;;17.30;85.00;;;;;;5006083;28;20054;-73
2021/06/24 01:04:07;;;;;;;6.90;2.80;;;17.20;85.10;;;;;;5006007;28;20108;-73
2021/06/24 01:06:33;;;;;;;4.82;3.03;;;17.20;85.20;;;;;;5005576;28;20084;-73
2021/06/24 01:08:59;;;;;;;7.30;3.30;;;17.20;85.50;;;;;;5003674;28;20105;-73
2021/06/24 01:11:26;;;;;;;7.43;3.53;;;17.30;85.70;;;;;;5007289;28;20117;-73
2021/06/24 01:13:52;;;;;;;6.28;2.97;;;17.30;85.30;;;;;;5003686;28;20022;-73
2021/06/24 01:16:17;;;;;;;4.45;3.03;;;17.20;85.30;;;;;;5004948;28;20097;-73
2021/06/24 01:18:43;;;;;;;8.88;3.88;;;17.20;85.80;;;;;;5006556;28;20030;-73
2021/06/24 01:21:08;;;;;;;6.55;3.45;;;17.10;85.50;;;;;;5005904;28;20436;-73
2021/06/24 01:23:39;;;;;;;5.88;2.85;;;17.20;85.80;;;;;;5005908;28;20026;-73
2021/06/24 01:26:05;;;;;;;4.07;2.97;;;17.20;85.80;;;;;;5022954;28;20088;-73
2021/06/24 01:28:30;;;;;;;10.60;3.80;;;17.20;86.20;;;;;;5004318;28;20033;-73
2021/06/24 01:30:56;;;;;;;6.97;3.65;;;17.20;86.30;;;;;;5007285;28;20030;-73
2021/06/24 01:33:24;;;;;;;4.88;3.28;;;17.20;86.30;;;;;;5004339;28;20030;-73
2021/06/24 01:35:55;;;;;;;8.18;3.35;;;17.20;86.10;;;;;;5008606;28;20045;-73
2021/06/24 01:38:21;;;;;;;8.43;5.55;;;17.10;86.20;;;;;;5003270;28;20108;-73
2021/06/24 01:40:53;;;;;;;6.28;3.65;;;17.10;86.40;;;;;;5005173;28;20480;-73
2021/06/24 01:43:18;;;;;;;8.02;3.85;;;17.10;86.10;;;;;;5020328;28;20480;-73
2021/06/24 01:45:49;;;;;;;7.15;3.15;;;17.00;86.30;;;;;;5008484;28;20028;-73
2021/06/24 01:48:15;;;;;;;7.30;3.90;;;17.00;86.30;;;;;;5003550;28;20035;-73
2021/06/24 01:50:41;;;;;;;6.07;3.80;;;17.00;86.30;;;;;;5006878;28;20041;-73
2021/06/24 01:53:07;;;;;;;9.65;4.40;;;17.00;86.30;;;;;;5002921;28;20029;-73
2021/06/24 01:55:34;;;;;;;9.68;4.28;;;17.00;86.80;;;;;;5005793;28;20033;-73
2021/06/24 01:58:01;;;;;;;8.57;4.43;;;16.90;87.00;;;;;;5004527;28;20052;-73
2021/06/24 02:00:26;;;;;;;10.55;4.22;;;16.90;86.80;;;;;;5005653;28;20029;-73
2021/06/24 02:02:52;;;;;;;9.82;4.82;;;16.90;87.30;;;;;;5003844;28;20029;-73
2021/06/24 02:05:17;;;;;;;9.38;5.78;;;16.80;87.50;;;;;;5005029;28;20382;-73
2021/06/24 02:07:43;;;;;;;9.00;3.95;;;16.80;87.40;;;;;;5005356;28;20037;-73
2021/06/24 02:10:10;;;;;;;8.02;4.85;;;16.80;87.20;;;;;;5002190;28;20145;-73
2021/06/24 02:12:36;;;;;;;6.68;3.70;;;16.80;87.20;;;;;;5002189;28;20073;-73
2021/06/24 02:15:05;;;;;;;6.47;4.18;;;16.80;88.10;;;;;;5000596;28;20037;-73
2021/06/24 02:17:30;;;;;;;6.00;4.18;;;16.80;88.00;;;;;;5006841;28;20035;-73
2021/06/24 02:19:56;;;;;;;11.50;4.85;;;16.70;87.80;;;;;;5001345;28;20389;-73
2021/06/24 02:22:21;;;;;;;10.20;3.85;;;16.70;87.70;;;;;;5006539;28;20171;-73
2021/06/24 02:24:47;;;;;;;8.73;3.70;;;16.70;87.80;;;;;;5005973;28;20065;-73
2021/06/24 02:27:12;;;;;;;6.57;4.35;;;16.70;88.60;;;;;;5006873;28;20025;-73
2021/06/24 02:29:38;;;;;;;6.25;4.13;;;16.60;88.80;;;;;;5004484;28;20034;-73
2021/06/24 02:32:04;;;;;;;7.25;4.15;;;16.70;88.50;;;;;;5000260;28;20026;-73
2021/06/24 02:34:29;;;;;;;6.00;3.30;;;16.70;88.60;;;;;;5005539;28;20029;-73
2021/06/24 02:36:55;;;;;;;11.95;4.00;;;16.70;88.70;;;;;;5010318;28;20037;-73
2021/06/24 02:39:21;;;;;;;7.60;3.72;;;16.70;88.50;;;;;;5006604;28;20041;-73
2021/06/24 02:41:46;;;;;;;5.50;3.85;;;16.60;88.60;;;;;;5011557;28;20097;-73
2021/06/24 02:44:12;;;;;;;7.55;4.10;;;16.60;89.10;;;;;;5012204;28;20028;-73
2021/06/24 02:46:37;;;;;;;9.70;4.32;;;16.60;89.60;;;;;;5012112;28;20049;-72
2021/06/24 02:49:03;;;;;;;11.13;4.25;;;16.60;89.40;;;;;;5008844;28;20363;-73
2021/06/24 02:51:28;;;;;;;4.82;3.97;;;16.50;89.60;;;;;;5007916;28;20098;-73
2021/06/24 02:53:54;;;;;;;7.75;3.97;;;16.50;89.60;;;;;;5007424;28;20034;-73
2021/06/24 02:56:22;;;;;;;9.55;4.53;;;16.40;89.60;;;;;;5009593;28;20370;-73
2021/06/24 02:58:48;;;;;;;4.80;3.65;;;16.40;90.00;;;;;;5008412;28;20065;-73
2021/06/24 03:01:13;;;;;;;9.50;4.72;;;16.40;90.10;;;;;;5009336;28;20456;-73
2021/06/24 03:03:39;;;;;;;8.05;4.32;;;16.40;90.10;;;;;;5009428;28;20038;-73
2021/06/24 03:06:05;;;;;;;10.82;5.18;;;16.40;90.20;;;;;;5010532;28;20041;-73
2021/06/24 03:08:30;;;;;;;10.57;4.53;;;16.40;90.30;;;;;;5002245;28;20054;-73
2021/06/24 03:10:56;;;;;;;8.82;4.20;;;16.40;90.40;;;;;;5010625;28;20041;-73
2021/06/24 03:13:21;;;;;;;7.30;4.38;;;16.40;90.30;;;;;;5006026;28;20065;-73
2021/06/24 03:15:47;;;;;;;6.07;3.85;;;16.50;90.20;;;;;;5009121;28;20612;-73
2021/06/24 03:18:12;;;;;;;9.77;4.45;;;16.50;90.20;;;;;;5007803;28;20038;-73
2021/06/24 03:20:38;;;;;;;11.45;4.15;;;16.50;90.40;;;;;;5007793;28;20060;-73
2021/06/24 03:23:03;;;;;;;10.52;4.35;;;16.50;90.20;;;;;;5008823;28;20405;-73
2021/06/24 03:25:30;;;;;;;7.18;4.40;;;16.50;90.30;;;;;;5007723;28;20045;-73
2021/06/24 03:27:56;;;;;;;9.07;4.13;;;16.50;90.20;;;;;;5008148;28;21916;-73
2021/06/24 03:30:22;;;;;;;8.95;5.03;;;16.50;90.20;;;;;;5007059;28;20034;-73
2021/06/24 03:32:49;;;;;;;8.73;5.35;;;16.50;90.40;;;;;;5009169;28;20033;-73
2021/06/24 03:35:16;;;;;;;13.32;4.07;;;16.50;90.30;;;;;;5009351;28;20126;-73
2021/06/24 03:37:41;;;;;;;9.07;4.75;;;16.50;90.40;;;;;;5009383;28;20097;-73
2021/06/24 03:40:09;;;;;;;6.85;4.60;;;16.50;90.50;;;;;;5007927;28;20034;-73
2021/06/24 03:42:35;;;;;;;9.48;5.03;;;16.60;90.60;;;;;;5007621;28;20026;-73
2021/06/24 03:45:02;;;;;;;9.23;4.90;;;16.60;90.40;;;;;;5004672;28;20398;-73
2021/06/24 03:47:27;;;;;;;6.65;3.85;;;16.60;90.30;;;;;;5008947;28;20509;-73
2021/06/24 03:49:53;;;;;;;8.32;4.90;;;16.60;90.30;;;;;;5007576;28;20042;-73
2021/06/24 03:52:18;;;;;;;8.23;5.38;;;16.80;90.30;;;;;;5006518;28;20130;-73
2021/06/24 03:54:44;;;;;;;6.30;3.92;;;17.00;90.20;;;;;;5007347;28;20038;-73
2021/06/24 03:57:09;;;;;;;11.38;5.65;;;17.10;90.10;;;;;;5009208;28;20036;-73
2021/06/24 03:59:35;;;;;;;10.13;4.95;;;17.20;90.00;;;;;;5006236;28;20026;-73
2021/06/24 04:02:00;;;;;;;7.68;3.97;;;17.30;89.80;;;;;;5002380;28;20026;-73
2021/06/24 04:04:26;;;;;;;10.07;4.93;;;17.40;89.60;;;;;;5009341;28;20029;-73
2021/06/24 04:06:51;;;;;;;10.65;4.90;;;17.30;89.00;;;;;;5007009;28;20040;-74
2021/06/24 04:09:17;;;;;;;6.10;5.05;;;17.30;89.30;;;;;;5007575;28;20041;-73
2021/06/24 04:11:42;;;;;;;11.75;5.47;;;17.30;89.30;;;;;;5003343;28;20117;-74
2021/06/24 04:14:08;;;;;;;5.85;4.85;;;17.30;89.50;;;;;;5009027;28;20053;-73
2021/06/24 04:16:33;;;;;;;9.63;5.45;;;17.20;89.60;;;;;;5007702;28;20038;-73
2021/06/24 04:18:59;;;;;;;9.63;5.75;;;17.10;89.40;;;;;;5007368;28;20026;-74
2021/06/24 04:21:25;;;;;;;13.40;5.93;;;17.10;89.50;;;;;;5008497;28;20029;-74
2021/06/24 04:23:51;;;;;;;10.95;4.68;;;17.10;90.00;;;;;;5009723;28;20030;-73
2021/06/24 04:26:17;;;;;;;7.85;5.38;;;17.00;90.10;;;;;;5009179;28;20026;-74
2021/06/24 04:28:42;;;;;;;6.82;4.65;;;17.00;90.00;;;;;;5005242;28;20504;-74
2021/06/24 04:31:08;;;;;;;8.57;5.40;;;16.90;90.10;;;;;;5009734;28;20065;-73
2021/06/24 04:33:34;;;;;;;10.38;6.30;;;16.90;90.20;;;;;;5004702;28;20026;-72
2021/06/24 04:36:00;;;;;;;15.70;5.90;;;16.90;90.50;;;;;;5007197;28;20026;-74
2021/06/24 04:38:25;;;;;;;7.97;5.28;;;16.80;90.40;;;;;;5006480;28;20029;-75
2021/06/24 04:40:51;;;;;;;7.05;4.88;;;16.80;90.50;;;;;;5000482;28;20030;-74
2021/06/24 04:43:16;;;;;;;16.25;5.47;;;16.80;90.40;;;;;;5011152;28;20030;-74
2021/06/24 04:45:42;;;;;;;13.98;7.57;;;16.80;90.40;;;;;;5008063;28;20473;-74
2021/06/24 04:48:08;;;;;;;14.00;10.60;;;16.80;90.50;;;;;;5009297;28;20113;-75
2021/06/24 04:50:35;;;;;;;17.58;9.40;;;16.90;90.60;;;;;;5006293;28;20033;-74
2021/06/24 04:53:01;;;;;;;10.57;7.55;;;16.90;90.60;;;;;;5009598;28;20042;-74
2021/06/24 04:55:26;;;;;;;11.60;7.75;;;17.00;90.70;;;;;;5005594;28;20033;-74
2021/06/24 04:57:52;;;;;;;11.25;6.07;;;17.10;90.60;;;;;;5005889;28;20068;-73
2021/06/24 05:00:18;;;;;;;13.82;5.45;;;17.00;90.70;;;;;;5005172;28;20412;-73
2021/06/24 05:02:43;;;;;;;10.27;6.47;;;17.10;90.90;;;;;;5002375;28;20022;-74
2021/06/24 05:05:09;;;;;;;9.93;5.18;;;17.00;90.90;;;;;;5005195;28;20141;-75
2021/06/24 05:07:36;;;;;;;10.75;6.15;;;17.00;91.00;;;;;;5019083;28;20036;-75
2021/06/24 05:10:03;;;;;;;12.68;5.85;;;17.00;91.10;;;;;;5007546;28;20025;-74
2021/06/24 05:12:28;;;;;;;8.85;5.65;;;17.00;91.20;;;;;;5008422;28;20041;-74
2021/06/24 05:14:54;;;;;;;9.75;5.80;;;17.00;91.30;;;;;;5008001;28;20033;-74
2021/06/24 05:17:19;;;;;;;10.23;6.55;;;17.00;91.10;;;;;;5008602;28;20026;-74
2021/06/24 05:19:46;;;;;;;7.63;5.90;;;16.90;91.30;;;;;;5007137;28;20101;-75
2021/06/24 05:22:11;;;;;;;10.15;5.88;;;16.90;91.40;;;;;;5008477;28;20417;-74
2021/06/24 05:24:39;;;;;;;8.95;5.90;;;16.90;91.50;;;;;;5007568;28;20032;-75
2021/06/24 05:27:05;;;;;;;12.60;6.75;;;16.90;91.60;;;;;;5008552;28;20057;-74
2021/06/24 05:29:30;;;;;;;10.35;7.05;;;16.80;91.60;;;;;;5007703;28;20123;-74
2021/06/24 05:31:56;;;;;;;9.23;6.07;;;16.80;91.60;;;;;;5009218;28;20034;-74
2021/06/24 05:34:21;;;;;;;10.95;6.80;;;16.80;91.70;;;;;;5009926;28;20033;-75
2021/06/24 05:36:47;;;;;;;12.35;6.53;;;16.80;91.70;;;;;;5009036;28;20036;-75
2021/06/24 05:39:12;;;;;;;10.68;5.78;;;16.80;91.80;;;;;;5009114;28;20532;-75
2021/06/24 05:41:38;;;;;;;8.32;5.38;;;16.80;91.70;;;;;;5007539;28;20040;-75
2021/06/24 05:44:04;;;;;;;13.57;6.43;;;16.90;91.60;;;;;;5008876;28;20459;-74
2021/06/24 05:46:29;;;;;;;10.80;6.32;;;16.90;91.70;;;;;;5009171;28;20061;-74
2021/06/24 05:48:56;;;;;;;21.77;7.10;;;17.00;91.40;;;;;;5008019;28;20116;-75
2021/06/24 05:51:23;;;;;;;11.00;7.25;;;17.00;91.30;;;;;;5008123;28;20026;-75
2021/06/24 05:53:51;;;;;;;9.75;6.45;;;17.00;91.30;;;;;;5009371;28;20092;-75
2021/06/24 05:56:19;;;;;;;11.25;6.43;;;17.00;91.30;;;;;;5009064;28;20579;-74
2021/06/24 05:58:45;;;;;;;12.95;6.88;;;16.90;91.50;;;;;;5005623;28;20129;-75
2021/06/24 06:01:10;;;;;;;14.07;7.22;;;16.90;91.50;;;;;;5007692;28;20112;-74
2021/06/24 06:03:35;;;;;;;8.55;5.72;;;17.00;91.40;;;;;;5008960;28;20026;-74
2021/06/24 06:06:01;;;;;;;10.70;7.20;;;17.10;91.30;;;;;;5007887;28;20030;-75
2021/06/24 06:08:27;;;;;;;9.40;6.10;;;17.10;91.50;;;;;;5008118;28;20088;-74
2021/06/24 06:10:53;;;;;;;14.45;7.10;;;17.10;91.30;;;;;;5008841;28;20028;-74
2021/06/24 06:13:19;;;;;;;15.05;7.10;;;17.20;91.30;;;;;;5006297;28;20033;-74
2021/06/24 06:15:48;;;;;;;11.73;6.43;;;17.20;91.20;;;;;;5008705;28;20112;-74
2021/06/24 06:18:19;;;;;;;11.73;6.57;;;17.30;91.20;;;;;;5007927;28;20022;-74
2021/06/24 06:20:46;;;;;;;11.75;6.55;;;17.30;91.10;;;;;;5007540;28;20476;-75
2021/06/24 06:23:14;;;;;;;9.05;6.50;;;17.30;91.10;;;;;;5008483;28;20050;-75
2021/06/24 06:25:40;;;;;;;12.20;7.07;;;17.30;91.20;;;;;;5009211;28;20034;-74
2021/06/24 06:28:06;;;;;;;10.65;6.45;;;17.20;91.30;;;;;;5007313;28;20032;-74
2021/06/24 06:30:31;;;;;;;13.85;6.20;;;17.20;91.40;;;;;;5007741;28;20022;-74
2021/06/24 06:32:57;;;;;;;21.90;7.57;;;17.30;91.30;;;;;;5007275;28;20107;-74
2021/06/24 06:35:23;;;;;;;20.55;9.68;;;17.40;91.30;;;;;;5009202;28;20029;-74
2021/06/24 06:37:48;;;;;;;14.45;10.00;;;17.40;91.20;;;;;;5008120;28;20033;-74
2021/06/24 06:40:14;;;;;;;16.10;8.75;;;17.40;91.20;;;;;;5007736;28;20022;-74
2021/06/24 06:42:41;;;;;;;10.82;6.85;;;17.50;91.10;;;;;;5008471;28;20026;-74
2021/06/24 06:45:07;;;;;;;14.88;5.93;;;17.50;91.00;;;;;;5007296;28;20023;-74
2021/06/24 06:47:33;;;;;;;12.48;7.03;;;17.60;91.00;;;;;;5007543;28;20030;-74
2021/06/24 06:49:58;;;;;;;12.85;7.07;;;17.70;90.80;;;;;;5007191;28;20069;-74
2021/06/24 06:52:24;;;;;;;11.82;7.15;;;17.60;90.90;;;;;;5008547;28;20062;-74
2021/06/24 06:54:49;;;;;;;12.25;6.20;;;17.60;90.90;;;;;;5008814;28;20030;-74
2021/06/24 06:57:15;;;;;;;13.05;7.05;;;17.60;90.90;;;;;;5008666;28;20025;-74
2021/06/24 06:59:41;;;;;;;16.05;7.68;;;17.60;91.10;;;;;;5006865;28;20091;-74
2021/06/24 07:02:08;;;;;;;11.57;7.38;;;17.70;90.90;;;;;;5007355;28;20396;-74
2021/06/24 07:04:33;;;;;;;18.10;7.50;;;17.70;90.90;;;;;;5008450;28;20396;-74
2021/06/24 07:06:59;;;;;;;10.60;6.47;;;17.70;90.80;;;;;;5007866;28;20034;-74
2021/06/24 07:09:24;;;;;;;9.10;6.63;;;17.70;90.90;;;;;;5006253;28;20026;-74
2021/06/24 07:11:50;;;;;;;18.52;7.32;;;17.80;90.90;;;;;;5007299;28;20033;-74
2021/06/24 07:14:15;;;;;;;15.10;7.68;;;17.80;90.80;;;;;;5008330;28;20076;-74
2021/06/24 07:16:41;;;;;;;13.65;6.40;;;17.70;90.80;;;;;;5006386;28;20187;-74
2021/06/24 07:19:06;;;;;;;9.38;5.65;;;17.70;90.90;;;;;;5006245;28;20369;-74
2021/06/24 07:21:32;;;;;;;9.65;6.63;;;17.80;90.90;;;;;;5011164;28;20018;-74
2021/06/24 07:23:57;;;;;;;15.40;7.00;;;17.80;90.90;;;;;;5011693;28;20034;-74
2021/06/24 07:26:22;;;;;;;9.73;6.90;;;17.90;91.00;;;;;;5012139;28;20026;-74
2021/06/24 07:28:48;;;;;;;12.85;6.57;;;18.00;90.80;;;;;;5010511;28;20042;-74
2021/06/24 07:31:13;;;;;;;10.68;6.53;;;18.00;90.60;;;;;;5012092;28;20030;-74
2021/06/24 07:33:39;;;;;;;18.05;8.90;;;18.10;90.60;;;;;;5011052;28;20033;-74
2021/06/24 07:36:05;;;;;;;16.30;9.48;;;18.30;90.60;;;;;;5010367;28;21174;-74
2021/06/24 07:38:30;;;;;;;23.63;13.98;;;18.40;90.40;;;;;;5007219;28;20030;-74
2021/06/24 07:40:56;;;;;;;10.95;7.38;;;18.40;90.10;;;;;;5011825;28;20037;-74
2021/06/24 07:43:22;;;;;;;12.93;7.63;;;18.50;90.00;;;;;;5011255;28;20025;-74
2021/06/24 07:45:47;;;;;;;15.00;7.18;;;18.50;90.00;;;;;;5011685;28;20026;-74
2021/06/24 07:48:13;;;;;;;10.88;7.50;;;18.50;90.00;;;;;;5010530;28;20033;-74
2021/06/24 07:50:38;;;;;;;11.88;7.70;;;18.60;90.00;;;;;;5011574;28;20392;-74
2021/06/24 07:53:06;;;;;;;13.90;6.32;;;18.60;90.00;;;;;;5009583;28;20034;-74
2021/06/24 07:55:35;;;;;;;10.00;6.63;;;18.70;89.00;;;;;;5010015;28;20143;-74
2021/06/24 07:58:03;;;;;;;8.23;6.40;;;18.80;88.80;;;;;;5009582;28;20058;-74
2021/06/24 08:00:30;;;;;;;10.98;6.32;;;18.90;88.80;;;;;;5011061;28;20030;-74
2021/06/24 08:02:55;;;;;;;13.30;5.57;;;19.00;88.40;;;;;;5011868;28;20093;-74
2021/06/24 08:05:21;;;;;;;8.88;5.97;;;19.10;87.90;;;;;;5011624;28;20164;-74
2021/06/24 08:07:48;;;;;;;9.75;5.18;;;19.20;87.30;;;;;;5010241;28;20123;-74
2021/06/24 08:10:14;;;;;;;8.30;5.00;;;19.30;87.00;;;;;;5008320;28;20057;-74
2021/06/24 08:12:41;;;;;;;14.13;7.60;;;19.40;87.30;;;;;;5010552;28;20036;-74
2021/06/24 08:15:09;;;;;;;13.25;6.20;;;19.60;86.40;;;;;;5011204;28;20030;-74
2021/06/24 08:17:34;;;;;;;15.82;7.22;;;19.60;84.80;;;;;;5011109;28;20432;-74
2021/06/24 08:20:00;;;;;;;9.57;6.20;;;19.60;84.30;;;;;;5008313;28;20034;-74
2021/06/24 08:22:27;;;;;;;10.90;5.78;;;19.60;83.70;;;;;;5011197;28;20034;-74
2021/06/24 08:24:53;;;;;;;6.78;4.97;;;19.70;83.30;;;;;;5010841;28;20022;-74
2021/06/24 08:27:19;;;;;;;6.50;5.05;;;19.70;82.00;;;;;;5009405;28;20228;-74
2021/06/24 08:29:44;;;;;;;6.65;5.57;;;19.70;82.20;;;;;;5008296;28;20034;-74
2021/06/24 08:32:10;;;;;;;11.07;4.35;;;19.60;82.20;;;;;;5011081;28;20041;-74
2021/06/24 08:34:35;;;;;;;8.00;3.92;;;19.60;81.40;;;;;;5010470;28;20498;-74
2021/06/24 08:37:01;;;;;;;6.82;5.10;;;19.80;81.90;;;;;;5010571;28;20032;-74
2021/06/24 08:39:26;;;;;;;7.60;3.67;;;20.00;81.00;;;;;;5009750;28;20057;-75
2021/06/24 08:41:52;;;;;;;5.95;3.08;;;20.10;78.20;;;;;;5010362;28;20551;-75
2021/06/24 08:44:18;;;;;;;5.50;3.30;;;20.10;78.20;;;;;;5007355;28;20049;-74
2021/06/24 08:46:44;;;;;;;11.35;4.03;;;20.00;78.20;;;;;;5008764;28;20108;-74
2021/06/24 08:49:12;;;;;;;8.63;4.47;;;20.10;78.40;;;;;;5009789;28;20057;-74
2021/06/24 08:51:37;;;;;;;7.55;4.20;;;20.20;79.30;;;;;;5010280;28;20021;-74
2021/06/24 08:54:03;;;;;;;7.72;4.57;;;20.30;78.10;;;;;;5010717;28;20092;-74
2021/06/24 08:56:29;;;;;;;9.30;4.63;;;20.40;78.10;;;;;;5010495;28;20022;-74
2021/06/24 08:58:56;;;;;;;4.65;3.83;;;20.40;77.60;;;;;;5008042;28;20033;-74
2021/06/24 09:02:00;;;;;;;5.88;3.35;;;20.40;77.80;;;;;;5009121;28;20440;-74
2021/06/24 09:04:30;;;;;;;9.57;4.15;;;20.50;76.80;;;;;;5010057;28;20022;-74
2021/06/24 09:07:12;;;;;;;4.80;3.63;;;20.30;77.00;;;;;;5010374;28;20465;-74
2021/06/24 09:09:49;;;;;;;9.63;7.15;;;20.30;76.90;;;;;;5009238;28;20392;-74
2021/06/24 09:12:15;;;;;;;11.82;7.15;;;20.30;76.10;;;;;;5010669;28;20060;-74
2021/06/24 09:14:44;;;;;;;12.02;6.05;;;20.20;77.20;;;;;;5009847;28;20045;-75
2021/06/24 09:17:12;;;;;;;15.95;9.38;;;20.30;77.40;;;;;;5008212;28;20084;-74
2021/06/24 09:19:40;;;;;;;18.80;13.00;;;20.40;76.00;;;;;;5006642;28;20091;-75
2021/06/24 09:22:08;;;;;;;6.53;3.95;;;20.50;75.80;;;;;;5009926;28;20216;-75
2021/06/24 09:24:38;;;;;;;19.90;13.75;;;20.60;74.40;;;;;;5009507;28;20105;-75
2021/06/24 09:27:22;;;;;;;6.05;4.05;;;20.50;74.30;;;;;;5009761;28;20025;-75
2021/06/24 09:29:49;;;;;;;11.27;4.00;;;20.50;74.30;;;;;;5023668;28;20026;-75
2021/06/24 09:32:29;;;;;;;6.10;3.13;;;20.50;75.30;;;;;;5009937;28;20030;-75
2021/06/24 09:34:54;;;;;;;7.43;3.55;;;20.60;73.70;;;;;;5008876;28;20088;-74
2021/06/24 09:37:20;;;;;;;6.53;3.58;;;20.50;74.80;;;;;;5009728;28;20420;-74
2021/06/24 09:39:47;;;;;;;12.52;7.55;;;20.70;73.80;;;;;;5008079;28;20022;-74
2021/06/24 09:42:14;;;;;;;7.28;3.90;;;20.70;73.80;;;;;;5008744;28;20025;-75
2021/06/24 09:44:47;;;;;;;5.47;4.28;;;20.70;74.60;;;;;;5007803;28;20026;-75
2021/06/24 09:47:26;;;;;;;5.70;4.20;;;20.70;74.70;;;;;;5009242;28;20026;-75
2021/06/24 09:50:10;;;;;;;4.95;3.65;;;20.80;75.10;;;;;;5006200;28;20507;-75
2021/06/24 09:52:38;;;;;;;6.75;3.55;;;20.90;73.20;;;;;;5008314;28;20060;-75
2021/06/24 09:55:07;;;;;;;6.07;4.10;;;20.90;72.40;;;;;;5009396;28;20033;-75
2021/06/24 09:57:32;;;;;;;10.23;4.85;;;20.90;73.20;;;;;;5009057;28;20026;-75
2021/06/24 10:00:33;;;;;;;8.65;3.72;;;20.90;73.70;;;;;;5009201;28;20025;-75
2021/06/24 10:03:12;;;;;;;5.78;3.70;;;20.90;74.00;;;;;;5009228;28;20025;-75
2021/06/24 10:05:40;;;;;;;7.07;4.13;;;20.90;73.40;;;;;;5023126;28;20050;-75
2021/06/24 10:08:06;;;;;;;7.10;3.40;;;21.00;73.40;;;;;;5006208;28;20030;-75
2021/06/24 10:10:32;;;;;;;7.68;4.15;;;21.00;72.30;;;;;;5008132;28;20033;-75
2021/06/24 10:12:58;;;;;;;13.93;9.98;;;20.80;72.70;;;;;;5009178;28;20061;-75
2021/06/24 10:15:24;;;;;;;9.27;4.97;;;20.90;73.30;;;;;;5008019;28;20057;-75
2021/06/24 10:17:53;;;;;;;5.70;3.72;;;20.90;72.80;;;;;;5007111;28;20441;-75
2021/06/24 10:20:19;;;;;;;9.30;4.45;;;20.90;72.80;;;;;;5007556;28;20141;-75
2021/06/24 10:22:54;;;;;;;6.07;4.30;;;20.90;72.90;;;;;;5008800;28;20144;-75
2021/06/24 10:25:22;;;;;;;8.73;4.30;;;20.90;72.10;;;;;;5009162;28;20045;-75
2021/06/24 10:27:53;;;;;;;12.77;4.25;;;21.00;72.40;;;;;;5008502;28;20104;-75
2021/06/24 10:30:21;;;;;;;5.18;3.90;;;21.00;73.00;;;;;;5008122;28;20030;-75
2021/06/24 10:33:03;;;;;;;6.38;3.45;;;21.10;73.50;;;;;;5008336;28;20057;-75
2021/06/24 10:35:34;;;;;;;6.43;3.38;;;21.20;72.70;;;;;;5007114;28;20484;-75
2021/06/24 10:38:00;;;;;;;5.93;3.10;;;21.20;72.90;;;;;;5007771;28;20092;-75
2021/06/24 10:40:35;;;;;;;6.45;3.70;;;21.30;71.60;;;;;;5008510;28;20112;-75
2021/06/24 10:43:12;;;;;;;8.98;5.15;;;21.20;72.20;;;;;;5008861;28;20053;-74
2021/06/24 10:45:39;;;;;;;10.90;6.93;;;21.10;72.70;;;;;;5008959;28;20014;-74
2021/06/24 10:48:28;;;;;;;24.40;20.02;;;21.20;73.00;;;;;;5007410;28;20038;-74
2021/06/24 10:51:05;;;;;;;22.08;13.75;;;21.30;72.80;;;;;;5008068;28;20164;-74
2021/06/24 10:53:35;;;;;;;8.38;6.35;;;21.40;73.00;;;;;;5026447;28;20121;-74
2021/06/24 10:56:01;;;;;;;20.50;6.72;;;21.70;73.10;;;;;;5010828;28;20037;-74
2021/06/24 10:58:34;;;;;;;17.98;6.57;;;21.80;72.10;;;;;;5011298;28;20033;-74
2021/06/24 11:01:00;;;;;;;9.32;3.80;;;21.80;72.00;;;;;;5012356;28;20473;-74
2021/06/24 11:03:32;;;;;;;3.85;2.88;;;21.80;71.50;;;;;;5012476;28;20076;-74
2021/06/24 11:06:14;;;;;;;5.32;3.80;;;21.60;71.30;;;;;;5011630;28;20037;-74
2021/06/24 11:08:41;;;;;;;8.48;3.45;;;21.60;70.50;;;;;;5011370;28;20549;-74
2021/06/24 11:11:14;;;;;;;5.90;3.13;;;21.60;70.60;;;;;;5010762;28;20026;-75
2021/06/24 11:13:43;;;;;;;24.00;5.13;;;21.60;69.70;;;;;;5011623;28;20034;-74
2021/06/24 11:16:13;;;;;;;16.50;13.15;;;21.60;70.30;;;;;;5012177;28;20045;-74
2021/06/24 11:18:44;;;;;;;12.65;9.20;;;21.60;69.90;;;;;;5009185;28;20026;-74
2021/06/24 11:21:13;;;;;;;24.75;17.77;;;21.70;70.10;;;;;;5008566;28;20053;-74
2021/06/24 11:23:48;;;;;;;9.90;7.10;;;21.70;69.90;;;;;;5011145;28;20026;-74
2021/06/24 11:26:19;;;;;;;7.93;4.82;;;21.80;70.00;;;;;;5027122;28;20042;-74
2021/06/24 11:31:17;;;;;;;16.60;10.52;;;22.10;69.90;;;;;;5011182;28;20041;-74
2021/06/24 11:33:56;;;;;;;30.83;19.25;;;22.30;69.00;;;;;;5011419;28;20405;-74
2021/06/24 11:36:21;;;;;;;4.68;3.20;;;22.20;68.10;;;;;;5009516;28;20079;-74
2021/06/24 11:38:49;;;;;;;7.00;2.75;;;22.10;68.50;;;;;;5009131;28;20041;-74
2021/06/24 11:41:21;;;;;;;11.95;2.85;;;22.00;69.00;;;;;;5011657;28;20022;-74
2021/06/24 11:44:02;;;;;;;5.07;2.67;;;22.10;68.90;;;;;;5011173;28;20026;-74
2021/06/24 11:46:29;;;;;;;7.82;3.53;;;22.20;68.90;;;;;;5011773;28;20470;-74
2021/06/24 12:00:28;;;;;;;5.20;4.35;;;22.20;68.80;;;;;;5010489;28;20649;-74
2021/06/24 12:03:07;;;;;;;9.18;4.75;;;22.80;68.50;;;;;;5011297;28;20029;-74
2021/06/24 12:05:37;;;;;;;3.35;2.55;;;22.90;67.80;;;;;;5010835;28;20616;-74
2021/06/24 12:08:02;;;;;;;6.50;3.60;;;22.90;66.50;;;;;;5010120;28;20025;-74
2021/06/24 12:10:28;;;;;;;10.77;8.63;;;22.80;65.90;;;;;;5009004;28;20034;-74
2021/06/24 12:12:54;;;;;;;25.30;19.25;;;22.60;65.40;;;;;;5010493;28;20022;-74
2021/06/24 12:15:19;;;;;;;7.45;4.90;;;22.50;66.10;;;;;;5011550;28;20761;-74
2021/06/24 12:17:45;;;;;;;4.00;2.78;;;22.50;66.20;;;;;;5010887;28;20033;-74
2021/06/24 12:20:23;;;;;;;6.15;2.50;;;22.40;65.70;;;;;;5010913;28;20144;-74
2021/06/24 12:22:59;;;;;;;12.18;9.35;;;22.30;67.10;;;;;;5010539;28;20028;-74
2021/06/24 12:25:28;;;;;;;6.13;3.30;;;22.40;67.60;;;;;;5011465;28;20030;-72
2021/06/24 12:27:58;;;;;;;5.32;3.15;;;22.60;67.20;;;;;;5008378;28;20041;-72
2021/06/24 12:30:35;;;;;;;8.95;2.30;;;22.60;67.10;;;;;;5009596;28;20057;-72
2021/06/24 12:33:02;;;;;;;3.33;2.38;;;22.80;66.80;;;;;;5009289;28;20136;-72
2021/06/24 12:35:37;;;;;;;3.55;2.30;;;22.80;66.30;;;;;;5011416;28;20032;-72
2021/06/24 12:38:07;;;;;;;2.83;2.17;;;22.90;67.00;;;;;;5009506;28;20068;-72
2021/06/24 12:40:39;;;;;;;5.75;2.45;;;23.10;66.20;;;;;;5008802;28;20065;-72
2021/06/24 12:43:05;;;;;;;4.28;2.13;;;23.20;66.10;;;;;;5007496;28;20029;-72
2021/06/24 12:45:35;;;;;;;1.92;1.52;;;23.20;64.80;;;;;;5009357;28;20436;-72
2021/06/24 12:48:03;;;;;;;7.80;3.55;;;23.10;64.80;;;;;;5010024;28;20030;-72
2021/06/24 12:50:32;;;;;;;4.88;2.22;;;22.90;65.50;;;;;;5010661;28;20100;-72
2021/06/24 12:53:04;;;;;;;3.83;2.50;;;23.00;64.80;;;;;;5010394;28;20129;-72
2021/06/24 12:55:50;;;;;;;5.05;2.22;;;23.10;65.00;;;;;;5026092;28;20049;-71
2021/06/24 12:58:22;;;;;;;2.15;1.98;;;23.00;65.40;;;;;;5007374;28;20042;-72